createdAt,value
2023-04-17T00:03:01.454Z,32
2023-04-17T00:08:10.412Z,32
2023-04-17T00:13:18.222Z,32
2023-04-17T00:18:26.704Z,32
2023-04-17T00:23:35.942Z,32
2023-04-17T00:28:44.315Z,32
2023-04-17T00:33:53.432Z,32
2023-04-17T00:39:03.194Z,32
2023-04-17T00:44:11.677Z,32
2023-04-17T00:49:20.814Z,32
2023-04-17T00:54:30.554Z,32
2023-04-17T00:59:39.690Z,32
2023-04-17T01:04:49.462Z,32
2023-04-17T01:09:59.189Z,33
2023-04-17T01:15:07.686Z,33
2023-04-17T01:20:16.197Z,33
2023-04-17T01:25:23.986Z,33
2023-04-17T01:30:33.854Z,34
2023-04-17T01:35:42.271Z,34
2023-04-17T01:40:52.005Z,34
2023-04-17T01:46:00.548Z,34
2023-04-17T01:51:09.625Z,34
2023-04-17T01:56:18.109Z,34
2023-04-17T02:01:27.943Z,34
2023-04-17T02:06:36.321Z,34
2023-04-17T02:11:46.070Z,33
2023-04-17T02:16:55.190Z,34
2023-04-17T02:22:04.335Z,34
2023-04-17T03:08:25.213Z,33
2023-04-17T03:29:03.004Z,33
2023-04-17T03:34:11.380Z,33
2023-04-17T03:39:20.475Z,33
2023-04-17T03:44:28.339Z,33
2023-04-17T03:49:36.801Z,33
2023-04-17T03:54:47.193Z,33
2023-04-17T03:59:56.962Z,33
2023-04-17T04:05:06.174Z,33
2023-04-17T04:10:15.824Z,33
2023-04-17T04:15:24.307Z,33
2023-04-17T04:20:32.788Z,33
2023-04-17T04:25:42.544Z,33
2023-04-17T04:30:51.315Z,33
2023-04-17T04:35:59.512Z,33
2023-04-17T04:41:07.993Z,34
2023-04-17T04:46:16.610Z,34
2023-04-17T04:51:24.941Z,34
2023-04-17T04:56:34.723Z,34
2023-04-17T05:01:44.061Z,34
2023-04-17T05:06:52.315Z,34
2023-04-17T05:12:00.790Z,34
2023-04-17T05:17:09.904Z,34
2023-04-17T05:22:18.390Z,33
2023-04-17T05:27:26.900Z,33
2023-04-17T05:32:36.101Z,33
2023-04-17T05:37:45.797Z,33
2023-04-17T05:42:55.555Z,33
2023-04-17T05:48:04.083Z,34
2023-04-17T05:53:13.751Z,35
2023-04-17T05:58:24.822Z,35
2023-04-17T06:03:53.887Z,34
2023-04-17T06:08:45.585Z,34
2023-04-17T06:13:55.363Z,35
2023-04-17T06:19:06.412Z,34
2023-04-17T06:50:01.865Z,35
2023-04-17T06:55:10.271Z,35
2023-04-17T07:00:19.999Z,35
2023-04-17T07:05:28.486Z,35
2023-04-17T07:10:36.947Z,35
2023-04-17T07:15:46.999Z,36
2023-04-17T07:20:55.828Z,37
2023-04-17T07:26:04.977Z,37
2023-04-17T07:31:14.792Z,37
2023-04-17T07:36:23.817Z,36
2023-04-17T07:41:33.002Z,36
2023-04-17T07:46:41.694Z,36
2023-04-17T07:51:51.281Z,37
2023-04-17T07:57:00.307Z,37
2023-04-17T08:02:10.089Z,37
2023-04-17T08:07:17.925Z,38
2023-04-17T08:12:27.673Z,38
2023-04-17T08:17:36.909Z,38
2023-04-17T08:22:45.949Z,37
2023-04-17T08:27:55.042Z,37
2023-04-17T08:33:03.751Z,37
2023-04-17T08:38:13.283Z,37
2023-04-17T08:43:22.389Z,37
2023-04-17T08:48:30.885Z,37
2023-04-17T08:53:40.636Z,37
2023-04-17T08:58:49.761Z,38
2023-04-17T09:03:59.973Z,38
2023-04-17T09:09:09.611Z,38
2023-04-17T09:14:17.763Z,38
2023-04-17T09:19:28.153Z,37
2023-04-17T09:24:36.654Z,37
2023-04-17T09:29:45.756Z,37
2023-04-17T09:34:54.881Z,37
2023-04-17T09:40:04.740Z,37
2023-04-17T09:45:14.387Z,36
2023-04-17T10:31:37.289Z,37
2023-04-17T10:36:45.176Z,36
2023-04-17T10:41:56.627Z,36
2023-04-17T10:47:05.106Z,36
2023-04-17T10:52:13.899Z,36
2023-04-17T10:57:22.093Z,36
2023-04-17T11:02:30.144Z,36
2023-04-17T11:07:38.396Z,36
2023-04-17T11:12:46.873Z,37
2023-04-17T11:17:55.566Z,36
2023-04-17T11:23:04.517Z,37
2023-04-17T11:28:14.242Z,36
2023-04-17T11:33:23.394Z,36
2023-04-17T11:38:31.211Z,36
2023-04-17T11:43:40.967Z,36
2023-04-17T11:48:49.459Z,36
2023-04-17T11:53:58.548Z,36
2023-04-17T11:59:07.128Z,36
2023-04-17T12:04:17.987Z,36
2023-04-17T12:09:28.536Z,36
2023-04-17T12:14:38.239Z,36
2023-04-17T12:19:46.731Z,36
2023-04-17T12:22:14.556Z,36
2023-04-17T12:27:24.335Z,36
2023-04-17T12:32:37.976Z,36
2023-04-17T12:37:46.383Z,35
2023-04-17T12:42:54.888Z,35
2023-04-17T12:48:05.360Z,35
2023-04-17T12:53:15.052Z,36
2023-04-17T12:58:24.801Z,35
2023-04-17T13:03:53.907Z,35
2023-04-17T13:09:02.270Z,35
2023-04-17T13:14:11.512Z,35
2023-04-17T13:19:19.186Z,35
2023-04-17T13:24:32.724Z,35
2023-04-17T13:29:40.636Z,35
2023-04-17T13:34:50.396Z,34
2023-04-17T13:40:00.990Z,34
2023-04-17T13:45:11.829Z,34
2023-04-17T13:50:20.960Z,34
2023-04-17T13:55:31.356Z,34
2023-04-17T14:00:39.848Z,35
2023-04-17T14:05:52.203Z,34
2023-04-17T14:11:00.645Z,34
2023-04-17T14:16:09.219Z,34
2023-04-17T14:21:18.886Z,34
2023-04-17T14:26:28.635Z,34
2023-04-17T14:31:38.630Z,34
2023-04-17T14:36:50.763Z,34
2023-04-17T14:42:02.693Z,35
2023-04-17T14:47:10.584Z,34
2023-04-17T14:52:18.750Z,34
2023-04-17T14:57:27.840Z,34
2023-04-17T15:02:38.069Z,34
2023-04-17T15:07:48.625Z,33
2023-04-17T15:12:57.124Z,34
2023-04-17T15:18:07.506Z,34
2023-04-17T15:23:17.288Z,34
2023-04-17T15:28:27.264Z,34
2023-04-17T15:33:38.074Z,34
2023-04-17T15:38:46.557Z,34
2023-04-17T15:43:56.358Z,33
2023-04-17T15:49:21.972Z,33
2023-04-17T16:40:43.763Z,33
2023-04-17T16:45:53.520Z,33
2023-04-17T16:51:06.397Z,33
2023-04-17T16:56:15.517Z,33
2023-04-17T17:01:28.077Z,33
2023-04-17T17:06:36.964Z,33
2023-04-17T17:11:45.424Z,33
2023-04-17T17:16:54.207Z,32
2023-04-17T17:22:03.054Z,33
2023-04-17T17:27:12.772Z,33
2023-04-17T17:32:25.352Z,33
2023-04-17T17:37:35.553Z,33
2023-04-17T17:42:44.111Z,33
2023-04-17T17:47:52.690Z,32
2023-04-17T17:53:04.155Z,32
2023-04-17T17:58:12.624Z,32
2023-04-17T18:03:23.416Z,32
2023-04-17T18:08:32.788Z,32
2023-04-17T18:13:41.920Z,32
2023-04-17T18:18:51.086Z,31
2023-04-17T18:24:00.813Z,31
2023-04-17T18:29:09.279Z,31
2023-04-17T18:34:17.741Z,31
2023-04-17T18:39:26.883Z,31
2023-04-17T18:44:36.011Z,31
2023-04-17T18:49:45.775Z,31
2023-04-17T18:54:55.463Z,31
2023-04-17T19:00:05.287Z,31
2023-04-17T19:05:13.220Z,30
2023-04-17T19:10:22.889Z,30
2023-04-17T19:15:32.661Z,30
2023-04-17T19:20:41.749Z,30
2023-04-17T19:25:50.879Z,30
2023-04-17T19:31:00.009Z,30
2023-04-17T19:36:09.769Z,30
2023-04-17T19:46:28.630Z,31
2023-04-17T19:51:42.250Z,31
2023-04-17T20:43:19.272Z,31
2023-04-17T20:48:31.621Z,31
2023-04-17T20:53:41.916Z,31
2023-04-17T20:58:51.075Z,31
2023-04-17T21:04:00.348Z,31
2023-04-17T21:09:12.479Z,31
2023-04-17T21:14:21.675Z,32
2023-04-17T21:19:31.333Z,32
2023-04-17T21:24:41.117Z,32
2023-04-17T21:29:52.183Z,31
2023-04-17T21:35:01.276Z,31
2023-04-17T21:40:11.691Z,31
2023-04-17T21:45:23.036Z,31
2023-04-17T21:50:32.468Z,31
2023-04-17T21:55:43.546Z,32
2023-04-17T22:00:52.702Z,32
2023-04-17T22:06:02.539Z,31
2023-04-17T22:11:11.476Z,31
2023-04-17T22:16:18.784Z,32
2023-04-17T22:21:30.388Z,32
2023-04-17T22:26:38.868Z,32
2023-04-17T22:31:48.656Z,32
2023-04-17T22:36:57.831Z,31
2023-04-17T22:42:07.550Z,31
2023-04-17T22:47:16.024Z,31
2023-04-17T22:52:26.381Z,31
2023-04-17T22:57:35.543Z,31
2023-04-17T23:02:46.085Z,31
2023-04-17T23:07:55.031Z,31
2023-04-17T23:13:04.794Z,31
2023-04-17T23:18:14.759Z,31
2023-04-17T23:23:22.390Z,31
2023-04-17T23:28:31.532Z,31
2023-04-17T23:33:41.279Z,31
2023-04-17T23:38:53.321Z,31
